Time;durP1;ratioP1;P1;durP2;ratioP2;P2;SDS_P1;SDS_P2;PMS_P1;PMS_P2;Temp;Humidity;BMP_temperature;BMP_pressure;BME280_temperature;BME280_humidity;BME280_pressure;Samples;Min_cycle;Max_cycle;Signal;HPM_P1;HPM_P2
2022/04/26 03:36:10;;;;;;;30.50;17.00;;;;;;;-145.68;100.00;63218.00;10493869;28;20215;-57
2022/04/26 03:42:09;;;;;;;27.60;13.87;;;;;;;-145.68;100.00;63218.00;10494112;28;20200;-58
2022/04/26 03:48:09;;;;;;;28.13;14.57;;;;;;;-145.68;100.00;63218.00;10493749;28;20187;-61
2022/04/26 03:54:08;;;;;;;19.73;11.23;;;;;;;-145.68;100.00;63218.00;10493131;28;20227;-61
2022/04/26 04:00:07;;;;;;;25.57;14.20;;;;;;;-145.68;100.00;63218.00;10493478;28;20240;-59
2022/04/26 04:06:07;;;;;;;24.03;13.37;;;;;;;-145.68;100.00;63218.00;10475888;28;20276;-60
2022/04/26 04:12:06;;;;;;;26.27;16.27;;;;;;;-145.68;100.00;63218.00;10493669;28;20219;-58
2022/04/26 04:19:17;;;;;;;24.90;13.40;;;;;;;-145.68;100.00;63218.00;10493431;28;20206;-58
2022/04/26 04:24:23;;;;;;;26.63;13.63;;;;;;;-145.68;100.00;63218.00;10493224;28;20242;-59
2022/04/26 04:30:22;;;;;;;21.97;11.77;;;;;;;-145.68;100.00;63218.00;10493302;28;20542;-58
2022/04/26 04:36:21;;;;;;;26.83;15.57;;;;;;;-145.68;100.00;63218.00;10492872;28;20886;-58
2022/04/26 04:42:21;;;;;;;29.73;14.90;;;;;;;-145.68;100.00;63218.00;10493041;28;20186;-58
2022/04/26 04:48:20;;;;;;;25.50;13.80;;;;;;;-145.68;100.00;63218.00;10492821;28;20729;-59
2022/04/26 04:54:19;;;;;;;21.13;12.73;;;;;;;-145.68;100.00;63218.00;10492583;28;20230;-56
2022/04/26 05:00:18;;;;;;;21.70;12.93;;;;;;;-145.68;100.00;63218.00;10500732;28;20199;-60
2022/04/26 05:06:18;;;;;;;21.97;13.03;;;;;;;-145.68;100.00;63218.00;10500375;28;20222;-62
2022/04/26 05:12:18;;;;;;;16.90;10.87;;;;;;;-145.68;100.00;63218.00;10499895;28;20218;-61
2022/04/26 05:18:17;;;;;;;22.67;12.10;;;;;;;-145.68;100.00;63218.00;10499472;28;20209;-62
2022/04/26 05:30:33;;;;;;;23.90;11.83;;;;;;;-145.68;100.00;63218.00;10499078;28;20191;-63
2022/04/26 05:36:32;;;;;;;19.83;11.17;;;;;;;-145.68;100.00;63218.00;10498203;28;20215;-62
2022/04/26 05:42:31;;;;;;;20.47;10.40;;;;;;;-145.68;100.00;63218.00;10498483;28;20194;-58
2022/04/26 05:48:30;;;;;;;17.90;10.77;;;;;;;-145.68;100.00;63218.00;10498553;28;20199;-60
2022/04/26 05:54:29;;;;;;;17.70;10.03;;;;;;;-145.68;100.00;63218.00;10497887;28;20223;-61
2022/04/26 06:00:28;;;;;;;13.90;8.97;;;;;;;-145.68;100.00;63218.00;10498250;28;20195;-60
2022/04/26 06:06:27;;;;;;;11.23;6.97;;;;;;;-145.68;100.00;63218.00;10497112;28;20246;-55
2022/04/26 06:12:29;;;;;;;12.33;7.10;;;;;;;-145.68;100.00;63218.00;10497454;28;20211;-55
2022/04/26 06:18:28;;;;;;;9.73;6.60;;;;;;;-145.68;100.00;63218.00;10447885;28;20639;-57
2022/04/26 06:24:26;;;;;;;8.33;5.77;;;;;;;-145.68;100.00;63218.00;10435458;28;20213;-57
2022/04/26 06:30:25;;;;;;;8.93;6.00;;;;;;;-145.68;100.00;63218.00;10444766;28;20200;-54
2022/04/26 06:36:24;;;;;;;7.70;5.47;;;;;;;-145.68;100.00;63218.00;10455088;28;20223;-59
2022/04/26 06:42:23;;;;;;;9.30;6.13;;;;;;;-145.68;100.00;63218.00;10452677;28;20659;-58
2022/04/26 06:48:22;;;;;;;8.90;6.60;;;;;;;-145.68;100.00;63218.00;10454132;28;20218;-53
2022/04/26 06:54:21;;;;;;;8.80;7.30;;;;;;;-145.68;100.00;63218.00;10453767;28;20220;-53
2022/04/26 07:00:19;;;;;;;12.40;9.13;;;;;;;-145.68;100.00;63218.00;10446576;28;20196;-54
2022/04/26 07:06:18;;;;;;;12.52;9.02;;;;;;;-145.68;100.00;63218.00;10452291;28;20215;-57
2022/04/26 07:12:17;;;;;;;14.63;8.90;;;;;;;-145.68;100.00;63218.00;10451956;28;20223;-59
2022/04/26 07:18:16;;;;;;;10.00;6.30;;;;;;;-145.68;100.00;63218.00;10452097;28;20196;-57
2022/04/26 07:24:16;;;;;;;10.45;6.32;;;;;;;-145.68;100.00;63218.00;10452463;28;20261;-61
2022/04/26 07:30:14;;;;;;;7.72;5.43;;;;;;;-145.68;100.00;63218.00;10445529;28;20537;-58
2022/04/26 07:36:13;;;;;;;9.38;6.75;;;;;;;-145.68;100.00;63218.00;10448951;28;20259;-59
2022/04/26 07:42:12;;;;;;;12.23;6.53;;;;;;;-145.68;100.00;63218.00;10451074;28;20188;-59
2022/04/26 07:48:12;;;;;;;9.10;5.88;;;;;;;-145.68;100.00;63218.00;10449572;28;20199;-55
2022/04/26 07:54:11;;;;;;;9.27;6.78;;;;;;;-145.68;100.00;63218.00;10438322;28;20281;-58
2022/04/26 08:00:11;;;;;;;6.07;4.72;;;;;;;-145.68;100.00;63218.00;10439429;28;20196;-59
2022/04/26 08:06:13;;;;;;;10.35;5.97;;;;;;;-145.68;100.00;63218.00;10445912;28;20273;-60
2022/04/26 08:12:12;;;;;;;7.63;5.43;;;;;;;-145.68;100.00;63218.00;10447668;28;20188;-61
2022/04/26 08:18:11;;;;;;;7.43;4.63;;;;;;;-145.68;100.00;63218.00;10448468;28;20202;-59
2022/04/26 08:30:27;;;;;;;9.43;6.43;;;;;;;-145.68;100.00;63218.00;10449312;28;20302;-58
2022/04/26 08:36:26;;;;;;;8.35;7.15;;;;;;;-145.68;100.00;63218.00;10453682;28;20228;-61
2022/04/26 08:42:33;;;;;;;7.35;5.90;;;;;;;-145.68;100.00;63218.00;10429329;28;20200;-60
2022/04/26 08:54:51;;;;;;;6.93;5.85;;;;;;;-145.68;100.00;63218.00;10416027;28;20224;-62
2022/04/26 09:01:12;;;;;;;5.80;5.10;;;;;;;-145.68;100.00;63218.00;10409746;28;20188;-60
2022/04/26 09:07:12;;;;;;;7.10;5.05;;;;;;;-145.68;100.00;63218.00;10411945;28;20638;-60
2022/04/26 09:13:15;;;;;;;6.35;5.35;;;;;;;-145.68;100.00;63218.00;10451464;28;20215;-61
2022/04/26 09:19:19;;;;;;;5.18;4.60;;;;;;;-145.68;100.00;63218.00;10453854;28;20196;-60
2022/04/26 09:25:18;;;;;;;7.32;4.90;;;;;;;-145.68;100.00;63218.00;10453600;28;20580;-61
2022/04/26 09:31:25;;;;;;;6.38;4.80;;;;;;;-145.68;100.00;63218.00;10453237;28;20196;-59
2022/04/26 09:37:27;;;;;;;9.25;5.65;;;;;;;-145.68;100.00;63218.00;10452807;28;20305;-61
2022/04/26 09:43:30;;;;;;;8.43;5.20;;;;;;;-145.68;100.00;63218.00;10444448;28;20307;-60
2022/04/26 09:49:34;;;;;;;7.15;4.97;;;;;;;-145.68;100.00;63218.00;10426139;28;20672;-61
2022/04/26 09:55:33;;;;;;;6.20;5.00;;;;;;;-145.68;100.00;63218.00;10411013;28;20251;-60
2022/04/26 10:01:36;;;;;;;6.40;4.75;;;;;;;-145.68;100.00;63218.00;10411217;28;20188;-61
2022/04/26 10:07:36;;;;;;;5.35;4.50;;;;;;;-145.68;100.00;63218.00;10392836;28;20251;-60
2022/04/26 10:13:36;;;;;;;6.68;4.85;;;;;;;-145.68;100.00;63218.00;10418258;28;20734;-60
2022/04/26 10:19:40;;;;;;;6.22;4.63;;;;;;;-145.68;100.00;63218.00;10433724;28;20203;-59
2022/04/26 10:26:11;;;;;;;8.05;5.43;;;;;;;-145.68;100.00;63218.00;10450722;28;20212;-58
2022/04/26 10:32:10;;;;;;;5.75;4.88;;;;;;;-145.68;100.00;63218.00;10450742;28;20246;-61
2022/04/26 10:38:14;;;;;;;7.07;4.88;;;;;;;-145.68;100.00;63218.00;10450458;28;20219;-60
2022/04/26 10:44:12;;;;;;;5.88;4.55;;;;;;;-145.68;100.00;63218.00;10450553;28;20216;-60
2022/04/26 10:50:34;;;;;;;5.75;4.70;;;;;;;-145.68;100.00;63218.00;10449745;28;20232;-60
2022/04/26 10:56:34;;;;;;;6.00;4.78;;;;;;;-145.68;100.00;63218.00;10434370;28;20235;-58
2022/04/26 11:02:36;;;;;;;6.28;4.60;;;;;;;-145.68;100.00;63218.00;10425210;28;20196;-58
2022/04/26 11:08:36;;;;;;;6.45;5.40;;;;;;;-145.68;100.00;63218.00;10432803;28;20981;-60
2022/04/26 11:14:41;;;;;;;4.85;4.00;;;;;;;-145.68;100.00;63218.00;10431248;28;20235;-59
2022/04/26 11:28:16;;;;;;;6.60;3.67;;;;;;;-145.68;100.00;63218.00;10426692;28;20184;-60
2022/04/26 11:34:15;;;;;;;6.68;4.10;;;;;;;-145.68;100.00;63218.00;10447769;28;20228;-61
2022/04/26 11:46:58;;;;;;;3.58;2.20;;;;;;;-145.68;100.00;63218.00;10447865;28;20251;-61
2022/04/26 11:53:01;;;;;;;4.43;2.70;;;;;;;-145.68;100.00;63218.00;10446700;28;20203;-61
2022/04/26 11:58:33;;;;;;;6.40;2.30;;;;;;;-145.68;100.00;63218.00;10448035;28;20199;-62
2022/04/26 12:04:48;;;;;;;3.47;2.55;;;;;;;-145.68;100.00;63218.00;10447054;28;20273;-63
2022/04/26 12:10:48;;;;;;;4.47;2.90;;;;;;;-145.68;100.00;63218.00;10447444;28;20636;-61
2022/04/26 12:16:48;;;;;;;4.47;2.78;;;;;;;-145.68;100.00;63218.00;10482915;22;20577;-58
2022/04/26 12:22:47;;;;;;;3.45;2.40;;;;;;;-145.68;100.00;63218.00;10424750;28;20192;-59
2022/04/26 12:29:00;;;;;;;3.95;2.53;;;;;;;-145.68;100.00;63218.00;10449959;28;20706;-58
2022/04/26 12:35:00;;;;;;;6.10;5.50;;;;;;;-145.68;100.00;63218.00;10450047;28;20268;-58
2022/04/26 12:41:07;;;;;;;3.88;2.90;;;;;;;-145.68;100.00;63218.00;10450045;28;20219;-60
2022/04/26 12:53:32;;;;;;;7.55;3.85;;;;;;;-145.68;100.00;63218.00;10426465;28;20204;-59
2022/04/26 12:59:39;;;;;;;4.03;3.60;;;;;;;-145.68;100.00;63218.00;10426086;28;20250;-59
2022/04/26 13:05:42;;;;;;;3.58;3.05;;;;;;;-145.68;100.00;63218.00;10428785;28;20188;-58
2022/04/26 13:11:43;;;;;;;3.55;3.22;;;;;;;-145.68;100.00;63218.00;10415428;28;20184;-60
2022/04/26 13:17:43;;;;;;;5.28;3.00;;;;;;;-145.68;100.00;63218.00;10411453;28;20237;-60
2022/04/26 13:23:43;;;;;;;4.38;3.05;;;;;;;-145.68;100.00;63218.00;10415805;28;20196;-60
2022/04/26 13:29:41;;;;;;;3.33;2.97;;;;;;;-145.68;100.00;63218.00;10453811;28;20227;-60
2022/04/26 13:35:41;;;;;;;6.05;4.40;;;;;;;-145.68;100.00;63218.00;10456137;28;20222;-61
2022/04/26 13:41:40;;;;;;;4.20;3.13;;;;;;;-145.68;100.00;63218.00;10427928;28;20630;-61
2022/04/26 13:47:39;;;;;;;2.88;2.60;;;;;;;-145.68;100.00;63218.00;10430771;28;20244;-59
2022/04/26 13:53:38;;;;;;;8.30;3.70;;;;;;;-145.68;100.00;63218.00;10416719;28;20280;-59
2022/04/26 13:59:37;;;;;;;5.72;3.17;;;;;;;-145.68;100.00;63218.00;10434245;28;20220;-59
2022/04/26 14:05:36;;;;;;;5.35;3.88;;;;;;;-145.68;100.00;63218.00;10454911;28;20196;-61
2022/04/26 14:11:35;;;;;;;4.30;3.58;;;;;;;-145.68;100.00;63218.00;10455221;28;20670;-61
2022/04/26 14:23:51;;;;;;;4.07;3.20;;;;;;;-145.68;100.00;63218.00;10454629;28;20278;-61
2022/04/26 14:29:50;;;;;;;2.90;2.70;;;;;;;-145.68;100.00;63218.00;10458180;28;20214;-61
2022/04/26 14:35:49;;;;;;;3.25;2.85;;;;;;;-145.68;100.00;63218.00;10463258;28;20244;-57
2022/04/26 14:41:48;;;;;;;5.97;3.67;;;;;;;-145.68;100.00;63218.00;10432692;28;20192;-60
2022/04/26 14:47:47;;;;;;;5.28;2.90;;;;;;;-145.68;100.00;63218.00;10432698;28;20212;-58
2022/04/26 14:53:46;;;;;;;3.53;2.80;;;;;;;-145.68;100.00;63218.00;10432525;28;20201;-57
2022/04/26 14:59:48;;;;;;;3.35;2.97;;;;;;;-145.68;100.00;63218.00;10431963;28;20212;-59
2022/04/26 15:05:47;;;;;;;3.42;2.63;;;;;;;-145.68;100.00;63218.00;10431193;28;20275;-59
2022/04/26 15:11:46;;;;;;;2.78;2.50;;;;;;;-145.68;100.00;63218.00;10411782;28;20199;-59
2022/04/26 15:17:48;;;;;;;2.75;2.45;;;;;;;-145.68;100.00;63218.00;10411217;28;20232;-59
2022/04/26 15:23:47;;;;;;;2.83;2.60;;;;;;;-145.68;100.00;63218.00;10410740;28;20674;-58
2022/04/26 15:29:46;;;;;;;5.00;3.50;;;;;;;-145.68;100.00;63218.00;10410574;28;20215;-59
2022/04/26 15:35:45;;;;;;;3.58;3.08;;;;;;;-145.68;100.00;63218.00;10430629;28;20656;-60
2022/04/26 15:41:44;;;;;;;3.55;2.67;;;;;;;-145.68;100.00;63218.00;10421296;28;20191;-60
2022/04/26 15:47:43;;;;;;;4.65;3.70;;;;;;;-145.68;100.00;63218.00;10441503;28;20692;-58
2022/04/26 15:53:42;;;;;;;3.72;3.30;;;;;;;-145.68;100.00;63218.00;10450048;28;20192;-58
2022/04/26 15:59:41;;;;;;;4.78;3.10;;;;;;;-145.68;100.00;63218.00;10450877;28;20220;-58
2022/04/26 16:05:42;;;;;;;2.92;2.33;;;;;;;-145.68;100.00;63218.00;10449324;28;20192;-59
2022/04/26 16:24:17;;;;;;;3.08;2.33;;;;;;;-145.68;100.00;63218.00;10433069;28;20197;-61
2022/04/26 16:30:16;;;;;;;3.45;2.80;;;;;;;-145.68;100.00;63218.00;10436293;28;20278;-59
2022/04/26 16:36:17;;;;;;;4.25;2.95;;;;;;;-145.68;100.00;63218.00;10429371;28;20216;-59
2022/04/26 16:42:16;;;;;;;2.60;2.40;;;;;;;-145.68;100.00;63218.00;10429409;28;20196;-60
2022/04/26 16:48:15;;;;;;;3.75;2.60;;;;;;;-145.68;100.00;63218.00;10413516;28;20286;-57
2022/04/26 16:54:18;;;;;;;3.63;2.85;;;;;;;-145.68;100.00;63218.00;10416982;28;20180;-57
2022/04/26 17:00:16;;;;;;;3.05;2.72;;;;;;;-145.68;100.00;63218.00;10418067;28;20220;-55
2022/04/26 17:06:15;;;;;;;3.00;2.70;;;;;;;-145.68;100.00;63218.00;10422469;28;20612;-57
2022/04/26 17:12:14;;;;;;;3.35;2.78;;;;;;;-145.68;100.00;63218.00;10458852;28;20187;-55
2022/04/26 17:18:14;;;;;;;4.50;2.30;;;;;;;-145.68;100.00;63218.00;10448153;28;20261;-56
2022/04/26 17:30:30;;;;;;;3.35;2.85;;;;;;;-145.68;100.00;63218.00;10433056;28;20212;-58
2022/04/26 17:36:30;;;;;;;4.15;3.30;;;;;;;-145.68;100.00;63218.00;10448698;28;20373;-55
2022/04/26 17:42:29;;;;;;;4.03;3.47;;;;;;;-145.68;100.00;63218.00;10456817;28;20223;-60
2022/04/26 17:48:28;;;;;;;3.43;3.10;;;;;;;-145.68;100.00;63218.00;10456597;28;20223;-55
2022/04/26 18:00:44;;;;;;;5.17;3.90;;;;;;;-145.68;100.00;63218.00;10456278;28;20655;-59
2022/04/26 18:06:44;;;;;;;4.90;4.40;;;;;;;-145.68;100.00;63218.00;10455393;28;20184;-57
2022/04/26 18:12:44;;;;;;;10.40;3.90;;;;;;;-145.68;100.00;63218.00;10455671;28;20191;-60
2022/04/26 18:18:42;;;;;;;3.80;2.97;;;;;;;-145.68;100.00;63218.00;10416331;28;20232;-60
2022/04/26 18:24:42;;;;;;;3.40;3.10;;;;;;;-145.68;100.00;63218.00;10502075;22;20247;-61
2022/04/26 18:30:41;;;;;;;4.73;3.23;;;;;;;-145.68;100.00;63218.00;10496033;28;20195;-61
2022/04/26 18:36:40;;;;;;;4.77;3.63;;;;;;;-145.68;100.00;63218.00;10454463;28;20687;-61
2022/04/26 18:42:39;;;;;;;5.17;4.33;;;;;;;-145.68;100.00;63218.00;10453882;28;20613;-61
2022/04/26 18:48:38;;;;;;;8.13;5.40;;;;;;;-145.68;100.00;63218.00;10453841;28;20195;-61
2022/04/26 18:54:37;;;;;;;6.60;4.93;;;;;;;-145.68;100.00;63218.00;10452571;28;20295;-60
2022/04/26 19:00:36;;;;;;;9.57;5.80;;;;;;;-145.68;100.00;63218.00;10453582;28;20188;-61
2022/04/26 19:06:35;;;;;;;8.07;5.37;;;;;;;-145.68;100.00;63218.00;10446747;28;20195;-61
2022/04/26 19:12:34;;;;;;;9.43;5.17;;;;;;;-145.68;100.00;63218.00;10430138;28;21031;-60
2022/04/26 19:18:33;;;;;;;6.37;5.20;;;;;;;-145.68;100.00;63218.00;10408425;28;20313;-60
2022/04/26 19:24:32;;;;;;;5.93;4.53;;;;;;;-145.68;100.00;63218.00;10432146;28;20240;-60
2022/04/26 19:30:31;;;;;;;5.40;4.43;;;;;;;-145.68;100.00;63218.00;10426131;28;20211;-58
2022/04/26 19:36:30;;;;;;;7.70;4.87;;;;;;;-145.68;100.00;63218.00;10413875;28;20695;-57
2022/04/26 19:42:29;;;;;;;7.33;5.13;;;;;;;-145.68;100.00;63218.00;10426176;28;20212;-59
2022/04/26 19:48:28;;;;;;;5.50;4.70;;;;;;;-145.68;100.00;63218.00;10410993;28;20191;-58
2022/04/26 19:54:27;;;;;;;6.57;4.87;;;;;;;-145.68;100.00;63218.00;10410333;28;20636;-61
2022/04/26 20:00:26;;;;;;;9.27;5.87;;;;;;;-145.68;100.00;63218.00;10411343;28;20208;-57
2022/04/26 20:06:25;;;;;;;7.53;5.07;;;;;;;-145.68;100.00;63218.00;10436997;28;20722;-60
2022/04/26 20:12:24;;;;;;;7.20;5.50;;;;;;;-145.68;100.00;63218.00;10448436;28;20300;-55
2022/04/26 20:18:23;;;;;;;7.40;5.23;;;;;;;-145.68;100.00;63218.00;10444591;28;20230;-61
2022/04/26 20:24:25;;;;;;;6.73;5.60;;;;;;;-145.68;100.00;63218.00;10441993;28;20306;-56
2022/04/26 20:30:24;;;;;;;7.17;5.63;;;;;;;-145.68;100.00;63218.00;10458019;28;20192;-57
2022/04/26 20:36:23;;;;;;;9.10;5.93;;;;;;;-145.68;100.00;63218.00;10460312;28;20761;-52
2022/04/26 20:42:23;;;;;;;9.73;5.67;;;;;;;-145.68;100.00;63218.00;10443095;28;20200;-58
2022/04/26 20:48:24;;;;;;;11.93;5.10;;;;;;;-145.68;100.00;63218.00;10458894;28;20192;-55
2022/04/26 20:54:23;;;;;;;6.37;4.73;;;;;;;-145.68;100.00;63218.00;10458894;28;20224;-57
2022/04/26 21:00:22;;;;;;;8.60;5.33;;;;;;;-145.68;100.00;63218.00;10459323;28;20199;-56
2022/04/26 21:06:20;;;;;;;4.90;4.37;;;;;;;-145.68;100.00;63218.00;10458380;28;20708;-57
2022/04/26 21:12:19;;;;;;;5.53;4.87;;;;;;;-145.68;100.00;63218.00;10458426;28;20212;-57
2022/04/26 21:18:18;;;;;;;7.30;5.03;;;;;;;-145.68;100.00;63218.00;10458412;28;20219;-56
2022/04/26 21:24:17;;;;;;;6.03;4.40;;;;;;;-145.68;100.00;63218.00;10453158;28;20240;-60
2022/04/26 21:30:16;;;;;;;7.80;5.10;;;;;;;-145.68;100.00;63218.00;10458117;28;20195;-60
2022/04/26 21:36:16;;;;;;;5.10;4.60;;;;;;;-145.68;100.00;63218.00;10457552;28;20265;-60
2022/04/26 21:42:15;;;;;;;8.00;5.03;;;;;;;-145.68;100.00;63218.00;10457771;28;20216;-59
2022/04/26 21:48:14;;;;;;;6.40;4.77;;;;;;;-145.68;100.00;63218.00;10457577;28;20238;-59
2022/04/26 21:54:13;;;;;;;7.00;4.87;;;;;;;-145.68;100.00;63218.00;10456767;28;20211;-57
2022/04/26 22:00:25;;;;;;;5.67;4.90;;;;;;;-145.68;100.00;63218.00;10456687;28;20208;-57
2022/04/26 22:06:24;;;;;;;7.17;4.87;;;;;;;-145.68;100.00;63218.00;10456283;28;20281;-53
2022/04/26 22:12:23;;;;;;;5.90;4.70;;;;;;;-145.68;100.00;63218.00;10456135;28;20207;-54
2022/04/26 22:18:22;;;;;;;7.23;5.37;;;;;;;-145.68;100.00;63218.00;10455680;28;20223;-57
2022/04/26 22:24:21;;;;;;;9.33;5.07;;;;;;;-145.68;100.00;63218.00;10455480;28;20763;-53
2022/04/26 22:30:19;;;;;;;5.50;4.30;;;;;;;-145.68;100.00;63218.00;10455619;28;20597;-53
2022/04/26 22:36:18;;;;;;;5.40;4.83;;;;;;;-145.68;100.00;63218.00;10455306;28;20216;-56
2022/04/26 22:42:17;;;;;;;6.00;4.80;;;;;;;-145.68;100.00;63218.00;10455007;28;20663;-55
2022/04/26 22:48:16;;;;;;;5.63;4.67;;;;;;;-145.68;100.00;63218.00;10454197;28;20257;-53
2022/04/26 22:54:15;;;;;;;7.03;5.27;;;;;;;-145.68;100.00;63218.00;10454524;28;20295;-53
2022/04/26 23:00:14;;;;;;;6.23;4.80;;;;;;;-145.68;100.00;63218.00;10454421;28;20211;-53
2022/04/26 23:06:15;;;;;;;6.43;4.70;;;;;;;-145.68;100.00;63218.00;10453684;28;20203;-53
2022/04/26 23:12:14;;;;;;;6.40;4.60;;;;;;;-145.68;100.00;63218.00;10453872;28;20218;-54
2022/04/26 23:18:13;;;;;;;7.97;5.43;;;;;;;-145.68;100.00;63218.00;10453489;28;20216;-54
2022/04/26 23:24:13;;;;;;;6.87;5.00;;;;;;;-145.68;100.00;63218.00;10453271;28;20697;-54
2022/04/26 23:30:12;;;;;;;9.30;5.40;;;;;;;-145.68;100.00;63218.00;10452910;28;20192;-57
2022/04/26 23:36:11;;;;;;;7.43;4.97;;;;;;;-145.68;100.00;63218.00;10452443;28;20277;-53
2022/04/26 23:42:11;;;;;;;7.80;6.37;;;;;;;-145.68;100.00;63218.00;10452556;28;20603;-53
2022/04/26 23:48:10;;;;;;;6.30;5.23;;;;;;;-145.68;100.00;63218.00;10448974;28;20233;-55
2022/04/26 23:54:09;;;;;;;5.93;5.33;;;;;;;-145.68;100.00;63218.00;10452320;28;20219;-53
